Time;durP1;ratioP1;P1;durP2;ratioP2;P2;SDS_P1;SDS_P2;PMS_P1;PMS_P2;Temp;Humidity;BMP_temperature;BMP_pressure;BME280_temperature;BME280_humidity;BME280_pressure;Samples;Min_cycle;Max_cycle;Signal;HPM_P1;HPM_P2
2022/02/13 00:01:01;;;;;;;16.10;8.98;;;4.00;77.20;;;;;;6155991;22;91698;-71
2022/02/13 00:03:28;;;;;;;13.98;6.30;;;3.90;76.90;;;;;;6128685;22;95843;-71
2022/02/13 00:05:55;;;;;;;8.75;5.63;;;3.90;77.00;;;;;;6128303;22;94417;-71
2022/02/13 00:08:22;;;;;;;6.03;4.90;;;3.80;77.60;;;;;;6127199;22;99557;-74
2022/02/13 00:11:10;;;;;;;7.07;4.40;;;3.80;78.30;;;;;;6155422;22;92388;-74
2022/02/13 00:13:37;;;;;;;8.30;5.88;;;3.80;78.60;;;;;;6128568;22;95666;-74
2022/02/13 00:16:04;;;;;;;10.88;5.68;;;3.80;78.10;;;;;;6128382;22;93966;-74
2022/02/13 00:18:31;;;;;;;13.88;8.27;;;3.80;78.50;;;;;;6128817;22;92318;-74
2022/02/13 00:20:58;;;;;;;7.93;5.38;;;3.80;78.10;;;;;;6155491;22;92897;-74
2022/02/13 00:23:25;;;;;;;7.53;5.07;;;3.80;78.20;;;;;;6128557;22;93168;-74
2022/02/13 00:25:52;;;;;;;9.70;5.40;;;3.80;78.50;;;;;;6156281;22;92907;-74
2022/02/13 00:28:19;;;;;;;9.30;5.63;;;3.70;77.80;;;;;;6129033;22;92349;-75
2022/02/13 00:30:46;;;;;;;10.23;4.97;;;3.70;78.50;;;;;;6129516;22;92387;-74
2022/02/13 00:33:15;;;;;;;10.35;4.97;;;3.70;78.40;;;;;;6153951;22;95780;-74
2022/02/13 00:35:45;;;;;;;10.23;5.10;;;3.60;78.20;;;;;;6156229;22;95441;-71
2022/02/13 00:38:16;;;;;;;9.30;5.13;;;3.60;78.30;;;;;;6155620;22;92357;-71
2022/02/13 00:40:43;;;;;;;10.73;6.05;;;3.60;78.60;;;;;;6129494;22;92398;-71
2022/02/13 00:43:10;;;;;;;11.43;5.45;;;3.60;79.00;;;;;;6104585;22;93353;-70
2022/02/13 00:45:37;;;;;;;7.40;4.72;;;3.60;79.00;;;;;;6155791;22;92729;-71
2022/02/13 00:48:07;;;;;;;10.25;5.57;;;3.60;78.90;;;;;;6104477;22;92394;-71
2022/02/13 00:50:34;;;;;;;10.23;6.30;;;3.50;79.20;;;;;;6156521;22;91668;-71
2022/02/13 00:53:01;;;;;;;11.15;6.05;;;3.50;78.80;;;;;;6128665;22;103436;-71
2022/02/13 00:55:29;;;;;;;10.30;5.60;;;3.50;78.60;;;;;;6155757;22;92898;-71
2022/02/13 00:57:57;;;;;;;8.77;5.05;;;3.50;78.90;;;;;;6128142;22;95627;-71
2022/02/13 01:00:25;;;;;;;8.93;5.30;;;3.50;79.60;;;;;;6155520;22;92416;-70
2022/02/13 01:02:52;;;;;;;12.60;5.05;;;3.50;80.20;;;;;;6155786;22;93102;-71
2022/02/13 01:05:19;;;;;;;10.30;5.47;;;3.50;79.80;;;;;;6155403;22;92966;-70
2022/02/13 01:07:47;;;;;;;9.50;5.28;;;3.50;80.00;;;;;;6155964;22;92379;-71
2022/02/13 01:10:14;;;;;;;10.90;5.55;;;3.50;79.60;;;;;;6128448;22;92464;-71
2022/02/13 01:12:41;;;;;;;11.15;5.68;;;3.50;80.10;;;;;;6128905;22;95896;-71
2022/02/13 01:15:08;;;;;;;10.43;5.10;;;3.50;80.70;;;;;;6104355;22;95766;-71
2022/02/13 01:17:35;;;;;;;9.77;5.05;;;3.50;79.60;;;;;;6103866;22;104443;-71
2022/02/13 01:20:03;;;;;;;10.40;5.93;;;3.50;79.90;;;;;;6104463;22;92619;-71
2022/02/13 01:22:30;;;;;;;11.43;6.28;;;3.50;79.50;;;;;;6127250;22;98816;-71
2022/02/13 01:24:57;;;;;;;8.60;5.43;;;3.40;79.80;;;;;;6128771;22;98022;-70
2022/02/13 01:27:24;;;;;;;15.95;5.93;;;3.40;80.20;;;;;;6104282;22;92459;-71
2022/02/13 01:29:51;;;;;;;11.30;5.40;;;3.40;79.90;;;;;;6129443;22;92539;-70
2022/02/13 01:32:18;;;;;;;11.77;5.60;;;3.40;80.30;;;;;;6155351;22;93084;-71
2022/02/13 01:34:45;;;;;;;9.13;5.47;;;3.40;80.10;;;;;;6129347;22;92911;-71
2022/02/13 01:37:12;;;;;;;11.45;5.30;;;3.40;79.20;;;;;;6128661;22;92495;-70
2022/02/13 01:39:39;;;;;;;9.50;4.85;;;3.30;79.50;;;;;;6104778;22;91737;-71
2022/02/13 01:42:09;;;;;;;10.93;5.38;;;3.30;79.60;;;;;;6128610;22;107672;-71
2022/02/13 01:44:36;;;;;;;11.95;5.68;;;3.30;80.00;;;;;;6128085;22;95541;-71
2022/02/13 01:47:05;;;;;;;7.10;5.45;;;3.30;80.00;;;;;;6154324;22;94785;-74
2022/02/13 01:49:32;;;;;;;7.38;5.47;;;3.30;79.60;;;;;;6128330;22;92476;-74
2022/02/13 01:52:01;;;;;;;10.18;5.45;;;3.30;80.00;;;;;;6129131;22;92350;-74
2022/02/13 01:54:28;;;;;;;9.43;5.60;;;3.30;80.30;;;;;;6155295;22;92973;-74
2022/02/13 01:56:56;;;;;;;12.40;6.47;;;3.30;80.40;;;;;;6155631;22;92367;-74
2022/02/13 01:59:24;;;;;;;8.10;5.85;;;3.30;80.00;;;;;;6103680;22;92396;-74
2022/02/13 02:01:51;;;;;;;8.63;5.07;;;3.30;80.40;;;;;;6129034;22;93176;-74
2022/02/13 02:04:18;;;;;;;11.10;5.57;;;3.30;80.40;;;;;;6155680;22;92883;-74
2022/02/13 02:06:46;;;;;;;7.85;5.78;;;3.30;80.40;;;;;;6155884;22;92757;-74
2022/02/13 02:09:13;;;;;;;8.80;6.13;;;3.30;79.80;;;;;;6155137;22;98674;-74
2022/02/13 02:11:41;;;;;;;9.80;5.47;;;3.30;80.80;;;;;;6153996;22;94696;-71
2022/02/13 02:14:08;;;;;;;11.13;5.53;;;3.20;79.80;;;;;;6128799;22;97826;-71
2022/02/13 02:16:36;;;;;;;7.45;5.90;;;3.20;79.70;;;;;;6103874;22;92547;-74
2022/02/13 02:19:08;;;;;;;10.32;5.50;;;3.20;79.80;;;;;;6104301;22;92376;-74
2022/02/13 02:21:45;;;;;;;11.98;5.90;;;3.20;79.50;;;;;;6154772;22;93076;-74
2022/02/13 02:24:13;;;;;;;9.15;6.05;;;3.20;80.60;;;;;;6131103;22;92502;-74
2022/02/13 02:26:41;;;;;;;8.23;5.70;;;3.20;80.40;;;;;;6129276;22;92339;-74
2022/02/13 02:29:08;;;;;;;7.85;5.50;;;3.10;80.50;;;;;;6156218;22;92046;-74
2022/02/13 02:31:35;;;;;;;10.15;5.50;;;3.10;80.20;;;;;;6155094;22;93105;-74
2022/02/13 02:34:02;;;;;;;10.40;5.82;;;3.10;80.80;;;;;;6155085;22;101088;-74
2022/02/13 02:36:29;;;;;;;9.65;5.85;;;3.10;80.90;;;;;;6153893;22;94732;-74
2022/02/13 02:38:56;;;;;;;9.73;6.00;;;3.10;81.70;;;;;;6103946;22;92495;-74
2022/02/13 02:41:24;;;;;;;8.57;5.68;;;3.10;81.10;;;;;;6155019;22;93252;-74
2022/02/13 02:43:51;;;;;;;9.13;6.78;;;3.10;81.40;;;;;;6155346;22;93268;-74
2022/02/13 02:46:18;;;;;;;8.48;5.15;;;3.10;81.40;;;;;;6155563;22;92440;-74
2022/02/13 02:48:45;;;;;;;9.23;5.97;;;3.10;81.00;;;;;;6128596;22;92483;-74
2022/02/13 02:51:13;;;;;;;8.60;5.32;;;3.10;81.30;;;;;;6128185;22;94222;-74
2022/02/13 02:53:42;;;;;;;8.95;5.03;;;3.10;81.50;;;;;;6155599;22;92964;-74
2022/02/13 02:56:10;;;;;;;9.25;5.38;;;3.10;81.00;;;;;;6154960;22;92327;-74
2022/02/13 02:58:39;;;;;;;10.25;5.85;;;3.10;80.70;;;;;;6155112;22;92430;-74
2022/02/13 03:01:07;;;;;;;10.52;5.90;;;3.10;81.10;;;;;;6102767;22;95383;-74
2022/02/13 03:03:35;;;;;;;8.73;5.82;;;3.10;81.50;;;;;;6128052;22;97912;-74
2022/02/13 03:06:02;;;;;;;8.52;5.50;;;3.00;81.50;;;;;;6129373;22;92396;-74
2022/02/13 03:08:29;;;;;;;8.35;6.25;;;3.00;81.50;;;;;;6128954;22;92481;-74
2022/02/13 03:10:57;;;;;;;10.13;5.57;;;3.00;81.90;;;;;;6128868;22;93207;-74
2022/02/13 03:13:26;;;;;;;9.80;6.00;;;3.00;81.80;;;;;;6127970;22;94071;-74
2022/02/13 03:15:53;;;;;;;9.90;6.25;;;3.00;82.40;;;;;;6155400;22;92612;-74
2022/02/13 03:18:20;;;;;;;9.05;5.95;;;3.00;82.20;;;;;;6155519;22;91749;-74
2022/02/13 03:20:49;;;;;;;8.27;4.90;;;3.00;81.80;;;;;;6128144;22;99458;-74
2022/02/13 03:23:18;;;;;;;9.05;5.90;;;3.00;81.60;;;;;;6127911;22;102946;-74
2022/02/13 03:25:45;;;;;;;13.52;6.35;;;2.90;81.90;;;;;;6127084;22;94895;-74
2022/02/13 03:28:12;;;;;;;9.27;5.47;;;2.90;81.80;;;;;;6129076;22;92496;-74
2022/02/13 03:30:39;;;;;;;10.38;5.43;;;2.90;82.00;;;;;;6154835;22;93232;-74
2022/02/13 03:33:06;;;;;;;11.18;6.18;;;2.90;82.10;;;;;;6154861;22;93000;-74
2022/02/13 03:35:33;;;;;;;12.88;6.38;;;2.90;81.90;;;;;;6155212;22;92774;-74
2022/02/13 03:38:03;;;;;;;10.15;6.40;;;2.80;82.70;;;;;;6155272;22;92370;-74
2022/02/13 03:40:30;;;;;;;10.65;6.57;;;2.80;82.50;;;;;;6154716;22;93075;-74
2022/02/13 03:42:57;;;;;;;10.63;6.05;;;2.80;82.10;;;;;;6155457;22;93026;-74
2022/02/13 03:45:25;;;;;;;12.15;6.70;;;2.80;82.30;;;;;;6127974;22;92512;-74
2022/02/13 03:47:52;;;;;;;8.40;5.72;;;2.80;82.40;;;;;;6102941;22;104544;-74
2022/02/13 03:50:19;;;;;;;10.25;6.00;;;2.80;81.90;;;;;;6101724;22;98024;-74
2022/02/13 03:52:46;;;;;;;9.98;6.18;;;2.80;82.20;;;;;;6127767;22;98019;-74
2022/02/13 03:55:16;;;;;;;9.25;6.15;;;2.80;82.50;;;;;;6154739;22;92303;-74
2022/02/13 03:57:43;;;;;;;8.63;5.88;;;2.80;82.50;;;;;;6128118;22;92515;-74
2022/02/13 04:00:15;;;;;;;8.05;6.07;;;2.80;82.30;;;;;;6154634;22;93265;-74
2022/02/13 04:02:42;;;;;;;10.25;6.47;;;2.80;82.70;;;;;;6103222;22;95390;-74
2022/02/13 04:05:10;;;;;;;8.75;5.70;;;2.80;83.00;;;;;;6154680;22;92325;-75
2022/02/13 04:07:41;;;;;;;11.13;6.88;;;2.70;82.60;;;;;;6128125;22;91847;-74
2022/02/13 04:10:10;;;;;;;9.80;6.35;;;2.70;82.60;;;;;;6154752;22;93200;-74
2022/02/13 04:12:37;;;;;;;8.57;6.30;;;2.70;82.70;;;;;;6127581;22;93959;-74
2022/02/13 04:15:05;;;;;;;8.18;5.45;;;2.70;83.30;;;;;;6126652;22;94909;-74
2022/02/13 04:17:32;;;;;;;9.30;6.68;;;2.70;82.90;;;;;;6127200;22;108988;-74
2022/02/13 04:19:59;;;;;;;12.18;6.15;;;2.70;82.90;;;;;;6128273;22;93112;-74
2022/02/13 04:22:26;;;;;;;9.38;5.75;;;2.70;83.20;;;;;;6154616;22;93733;-74
2022/02/13 04:24:53;;;;;;;12.13;6.47;;;2.70;83.30;;;;;;6154666;22;92354;-74
2022/02/13 04:27:19;;;;;;;10.77;6.18;;;2.70;83.10;;;;;;6155015;22;92771;-74
2022/02/13 04:29:46;;;;;;;10.98;6.53;;;2.60;83.40;;;;;;6154213;22;93103;-74
2022/02/13 04:32:13;;;;;;;9.18;5.85;;;2.70;83.10;;;;;;6154951;22;92990;-74
2022/02/13 04:34:41;;;;;;;9.68;6.20;;;2.70;83.10;;;;;;6154504;22;92330;-74
2022/02/13 04:37:08;;;;;;;12.48;6.57;;;2.60;83.40;;;;;;6127879;22;92490;-74
2022/02/13 04:39:35;;;;;;;11.13;7.25;;;2.70;83.60;;;;;;6125775;22;98177;-74
2022/02/13 04:42:02;;;;;;;11.75;6.45;;;2.70;83.20;;;;;;6102055;22;119550;-74
2022/02/13 04:44:29;;;;;;;10.95;6.85;;;2.70;82.80;;;;;;6128241;22;92417;-74
2022/02/13 04:46:56;;;;;;;8.32;6.22;;;2.70;83.60;;;;;;6104758;22;92458;-74
2022/02/13 04:49:25;;;;;;;7.80;6.43;;;2.70;83.30;;;;;;6155909;22;93054;-74
2022/02/13 04:51:52;;;;;;;9.23;6.65;;;2.70;83.30;;;;;;6129043;22;95264;-74
2022/02/13 04:54:19;;;;;;;11.77;7.07;;;2.70;83.20;;;;;;6129734;22;92501;-74
2022/02/13 04:56:46;;;;;;;7.13;6.03;;;2.70;82.90;;;;;;6121368;22;91715;-74
2022/02/13 04:59:13;;;;;;;9.10;6.65;;;2.70;82.70;;;;;;6155708;22;96541;-74
2022/02/13 05:01:40;;;;;;;11.77;6.25;;;2.70;83.00;;;;;;6155703;22;92896;-74
2022/02/13 05:04:07;;;;;;;7.90;5.90;;;2.70;82.90;;;;;;6154742;22;94846;-74
2022/02/13 05:06:35;;;;;;;10.38;6.60;;;2.70;83.10;;;;;;6155287;22;109200;-74
2022/02/13 05:09:03;;;;;;;10.93;6.55;;;2.70;83.10;;;;;;6129285;22;94482;-74
2022/02/13 05:11:31;;;;;;;8.75;5.75;;;2.70;83.20;;;;;;6155756;22;93167;-74
2022/02/13 05:14:01;;;;;;;11.25;6.47;;;2.60;82.50;;;;;;6154375;22;92454;-74
2022/02/13 05:16:29;;;;;;;10.85;6.78;;;2.60;82.70;;;;;;6154669;22;92518;-74
2022/02/13 05:18:56;;;;;;;9.43;7.00;;;2.60;82.90;;;;;;6155659;22;93286;-74
2022/02/13 05:21:23;;;;;;;10.38;6.38;;;2.60;82.90;;;;;;6154599;22;95411;-74
2022/02/13 05:23:50;;;;;;;9.68;7.47;;;2.60;83.00;;;;;;6154199;22;92391;-74
2022/02/13 05:26:17;;;;;;;9.02;6.32;;;2.60;83.00;;;;;;6156068;22;93131;-74
2022/02/13 05:28:44;;;;;;;8.70;6.22;;;2.60;83.30;;;;;;6152402;22;95807;-74
2022/02/13 05:31:11;;;;;;;9.68;6.18;;;2.60;82.60;;;;;;6129063;22;96356;-74
2022/02/13 05:33:39;;;;;;;8.82;6.15;;;2.60;82.80;;;;;;6153940;22;92897;-74
2022/02/13 05:36:06;;;;;;;8.35;5.82;;;2.50;82.90;;;;;;6154297;22;92817;-74
2022/02/13 05:38:33;;;;;;;10.02;5.88;;;2.50;82.60;;;;;;6155777;22;93210;-74
2022/02/13 05:41:00;;;;;;;8.27;6.13;;;2.50;82.60;;;;;;6155303;22;93163;-74
2022/02/13 05:43:28;;;;;;;11.10;6.72;;;2.50;82.80;;;;;;6156027;22;92379;-74
2022/02/13 05:45:56;;;;;;;7.68;5.72;;;2.50;83.00;;;;;;6156010;22;91669;-74
2022/02/13 05:48:25;;;;;;;9.13;6.00;;;2.50;83.30;;;;;;6153908;22;95625;-74
2022/02/13 05:50:52;;;;;;;8.95;5.82;;;2.50;83.10;;;;;;6155398;22;92371;-74
2022/02/13 05:53:19;;;;;;;9.02;5.93;;;2.50;82.80;;;;;;6128327;22;94790;-74
2022/02/13 05:55:46;;;;;;;9.65;6.00;;;2.50;83.00;;;;;;6155247;22;92446;-74
2022/02/13 05:58:15;;;;;;;10.55;5.88;;;2.50;83.10;;;;;;6129001;22;94071;-74
2022/02/13 06:00:43;;;;;;;11.85;6.13;;;2.50;83.50;;;;;;6155313;22;92453;-74
2022/02/13 06:03:10;;;;;;;9.15;6.13;;;2.50;82.90;;;;;;6129460;22;92349;-74
2022/02/13 06:05:37;;;;;;;9.50;5.78;;;2.50;82.90;;;;;;6155342;22;92421;-74
2022/02/13 06:08:04;;;;;;;10.75;6.20;;;2.50;83.40;;;;;;6128129;22;94203;-74
2022/02/13 06:10:32;;;;;;;9.98;6.15;;;2.50;83.30;;;;;;6156419;22;92908;-74
2022/02/13 06:12:58;;;;;;;9.93;6.10;;;2.50;83.20;;;;;;6129059;22;92406;-74
2022/02/13 06:15:25;;;;;;;10.98;6.70;;;2.50;83.30;;;;;;6155740;22;92283;-74
2022/02/13 06:17:52;;;;;;;8.82;6.70;;;2.50;82.80;;;;;;6126829;22;98149;-74
2022/02/13 06:20:19;;;;;;;8.07;6.63;;;2.50;83.80;;;;;;6155458;22;95232;-74
2022/02/13 06:22:46;;;;;;;8.52;5.93;;;2.50;83.80;;;;;;6128063;22;92462;-74
2022/02/13 06:25:13;;;;;;;8.40;6.28;;;2.50;83.90;;;;;;6129324;22;92444;-74
2022/02/13 06:27:40;;;;;;;7.18;5.03;;;2.50;84.30;;;;;;6128042;22;108910;-74
2022/02/13 06:30:07;;;;;;;9.40;5.95;;;2.50;83.20;;;;;;6128542;22;94631;-74
2022/02/13 06:32:34;;;;;;;9.40;5.63;;;2.50;83.40;;;;;;6155827;22;92668;-74
2022/02/13 06:35:02;;;;;;;9.05;6.47;;;2.50;83.40;;;;;;6128871;22;91763;-74
2022/02/13 06:37:30;;;;;;;10.15;5.75;;;2.50;83.70;;;;;;6128962;22;93075;-74
2022/02/13 06:39:58;;;;;;;8.27;6.05;;;2.50;83.10;;;;;;6127967;22;97288;-74
2022/02/13 06:42:25;;;;;;;10.38;5.47;;;2.50;83.30;;;;;;6127832;22;94956;-74
2022/02/13 06:44:52;;;;;;;9.93;6.43;;;2.50;83.70;;;;;;6155481;22;92681;-74
2022/02/13 06:47:19;;;;;;;8.02;5.82;;;2.50;83.40;;;;;;6104037;22;95633;-74
2022/02/13 06:49:46;;;;;;;11.55;5.82;;;2.50;83.00;;;;;;6104353;22;92961;-74
2022/02/13 06:52:13;;;;;;;7.75;5.70;;;2.50;82.50;;;;;;6155323;22;92310;-74
2022/02/13 06:54:40;;;;;;;8.98;5.43;;;2.50;82.80;;;;;;6105012;22;92956;-74
2022/02/13 06:57:07;;;;;;;11.10;6.03;;;2.50;83.40;;;;;;6077814;23;95902;-74
2022/02/13 06:59:34;;;;;;;9.45;6.38;;;2.50;83.90;;;;;;6125880;23;93113;-74
2022/02/13 07:02:03;;;;;;;6.78;4.53;;;2.50;83.70;;;;;;6074473;23;92523;-74
2022/02/13 07:04:30;;;;;;;7.57;4.60;;;2.50;84.00;;;;;;6125577;23;92773;-74
2022/02/13 07:07:00;;;;;;;8.45;6.20;;;2.50;83.10;;;;;;6097808;23;95593;-74
2022/02/13 07:09:28;;;;;;;8.10;5.22;;;2.60;82.70;;;;;;6124845;23;98680;-74
2022/02/13 07:11:55;;;;;;;9.18;5.68;;;2.60;82.40;;;;;;6098826;23;92906;-74
2022/02/13 07:14:22;;;;;;;10.05;6.65;;;2.60;82.80;;;;;;6099261;23;92483;-74
2022/02/13 07:16:49;;;;;;;9.63;6.10;;;2.70;83.20;;;;;;6074587;23;92977;-74
2022/02/13 07:19:16;;;;;;;7.78;5.53;;;2.70;83.30;;;;;;6124925;23;92967;-74
2022/02/13 07:21:43;;;;;;;9.43;5.63;;;2.80;82.70;;;;;;6099255;23;92814;-74
2022/02/13 07:24:14;;;;;;;30.27;20.83;;;2.90;82.50;;;;;;6125599;23;91712;-74
2022/02/13 07:26:41;;;;;;;9.15;6.22;;;3.00;82.00;;;;;;6124544;23;92366;-74
2022/02/13 07:29:09;;;;;;;8.55;6.75;;;3.10;82.80;;;;;;6098716;23;92801;-75
2022/02/13 07:31:37;;;;;;;10.32;9.30;;;3.20;81.20;;;;;;6097277;23;94904;-74
2022/02/13 07:34:05;;;;;;;8.13;6.88;;;3.30;81.10;;;;;;6098409;23;92511;-74
2022/02/13 07:36:33;;;;;;;6.20;5.20;;;3.50;81.50;;;;;;6125000;23;93527;-74
2022/02/13 07:39:02;;;;;;;8.48;6.93;;;3.60;80.00;;;;;;6097523;23;105480;-74
2022/02/13 07:41:29;;;;;;;10.48;7.85;;;3.80;80.20;;;;;;6125111;23;92375;-74
2022/02/13 07:43:59;;;;;;;8.38;7.60;;;4.00;78.30;;;;;;6098263;23;92373;-74
2022/02/13 07:46:26;;;;;;;11.05;8.48;;;4.20;78.30;;;;;;6098478;23;94695;-74
2022/02/13 07:48:53;;;;;;;11.02;10.10;;;4.30;77.50;;;;;;6125371;23;93005;-74
2022/02/13 07:51:21;;;;;;;10.30;9.00;;;4.40;77.20;;;;;;6098194;23;92447;-74
2022/02/13 07:53:48;;;;;;;8.43;7.38;;;4.60;77.00;;;;;;6098599;23;92365;-74
2022/02/13 07:56:15;;;;;;;11.40;7.43;;;4.70;76.20;;;;;;6121797;22;98044;-74
2022/02/13 07:58:42;;;;;;;8.88;6.63;;;4.80;75.80;;;;;;6128482;22;95387;-74
2022/02/13 08:01:09;;;;;;;8.38;6.30;;;4.90;75.40;;;;;;6153358;22;92484;-74
2022/02/13 08:03:36;;;;;;;11.75;7.45;;;5.00;75.90;;;;;;6154800;22;92921;-74
2022/02/13 08:06:05;;;;;;;9.18;7.88;;;5.10;73.60;;;;;;6127438;22;104406;-74
2022/02/13 08:08:36;;;;;;;15.10;13.55;;;5.10;74.50;;;;;;6154629;22;92961;-74
2022/02/13 08:11:04;;;;;;;9.52;6.03;;;5.00;74.90;;;;;;6153848;22;92321;-74
2022/02/13 08:13:32;;;;;;;9.30;6.40;;;5.10;74.90;;;;;;6153498;22;91689;-74
2022/02/13 08:15:59;;;;;;;8.80;6.03;;;5.10;75.10;;;;;;6153302;22;93201;-74
2022/02/13 08:18:27;;;;;;;9.52;6.53;;;5.10;74.80;;;;;;6152762;22;96020;-74
2022/02/13 08:20:56;;;;;;;8.45;5.03;;;5.10;74.30;;;;;;6127619;22;94874;-74
2022/02/13 08:23:24;;;;;;;8.00;7.18;;;5.10;75.00;;;;;;6154306;22;92422;-74
2022/02/13 08:25:53;;;;;;;9.48;5.40;;;5.20;74.40;;;;;;6154543;22;93262;-74
2022/02/13 08:28:20;;;;;;;6.60;5.78;;;5.30;73.70;;;;;;6129148;22;95644;-74
2022/02/13 08:30:47;;;;;;;14.98;10.60;;;5.30;74.40;;;;;;6156239;22;92394;-74
2022/02/13 08:33:15;;;;;;;9.73;7.55;;;5.40;74.60;;;;;;6153381;22;92513;-74
2022/02/13 08:35:42;;;;;;;7.63;6.70;;;5.50;73.40;;;;;;6155974;22;92397;-74
2022/02/13 08:38:09;;;;;;;7.72;5.70;;;5.50;73.60;;;;;;6156166;22;92932;-74
2022/02/13 08:40:37;;;;;;;6.43;5.10;;;5.50;73.90;;;;;;6154609;22;92515;-74
2022/02/13 08:43:04;;;;;;;7.07;5.13;;;5.50;73.20;;;;;;6129793;22;92943;-75
2022/02/13 08:45:32;;;;;;;6.47;4.63;;;5.60;73.20;;;;;;6128037;22;95749;-74
2022/02/13 08:47:59;;;;;;;8.00;5.95;;;5.60;73.40;;;;;;6154332;22;95340;-75
2022/02/13 08:50:26;;;;;;;6.57;5.70;;;5.70;73.30;;;;;;6154574;22;92953;-74
2022/02/13 08:52:53;;;;;;;5.60;4.45;;;5.70;72.80;;;;;;6156062;22;92901;-75
2022/02/13 08:55:21;;;;;;;6.38;5.25;;;5.80;72.60;;;;;;6153565;22;95859;-74
2022/02/13 08:57:48;;;;;;;8.82;5.55;;;5.80;73.10;;;;;;6152356;22;95674;-74
2022/02/13 09:00:18;;;;;;;6.95;5.25;;;5.90;72.50;;;;;;6154034;22;92385;-74
2022/02/13 09:02:45;;;;;;;7.13;5.35;;;5.90;72.60;;;;;;6156509;22;92161;-74
2022/02/13 09:05:13;;;;;;;6.75;5.28;;;6.00;72.50;;;;;;6153730;22;95937;-74
2022/02/13 09:07:40;;;;;;;7.05;5.15;;;6.00;72.30;;;;;;6155858;22;93063;-75
2022/02/13 09:10:09;;;;;;;8.13;5.97;;;6.10;71.70;;;;;;6154701;22;94799;-74
2022/02/13 09:12:37;;;;;;;7.05;5.70;;;6.10;71.60;;;;;;6129220;22;92483;-74
2022/02/13 09:15:08;;;;;;;8.07;5.63;;;6.20;72.00;;;;;;6155883;22;93093;-74
2022/02/13 09:17:35;;;;;;;5.85;4.97;;;6.30;71.80;;;;;;6155665;22;92988;-74
2022/02/13 09:20:04;;;;;;;6.80;5.60;;;6.30;71.40;;;;;;6156116;22;92395;-74
2022/02/13 09:22:31;;;;;;;7.72;5.38;;;6.40;71.40;;;;;;6155487;22;97810;-74
2022/02/13 09:24:58;;;;;;;8.40;5.65;;;6.50;71.10;;;;;;6154170;22;93233;-75
2022/02/13 09:27:25;;;;;;;8.02;5.70;;;6.60;71.10;;;;;;6129278;22;95959;-75
2022/02/13 09:29:54;;;;;;;7.13;5.70;;;6.70;70.80;;;;;;6154740;22;92545;-75
2022/02/13 09:32:21;;;;;;;5.88;5.05;;;6.80;70.40;;;;;;6155512;22;92442;-74
2022/02/13 09:34:49;;;;;;;7.82;4.82;;;6.90;71.00;;;;;;6152247;22;98009;-74
2022/02/13 09:37:18;;;;;;;9.00;4.97;;;7.00;70.30;;;;;;6153283;22;97923;-74
2022/02/13 09:39:47;;;;;;;6.85;5.57;;;7.10;70.00;;;;;;6153984;22;92536;-74
2022/02/13 09:42:14;;;;;;;8.80;5.10;;;7.10;69.10;;;;;;6155676;22;93282;-75
2022/02/13 09:44:41;;;;;;;8.70;6.15;;;7.20;68.80;;;;;;6153903;22;95942;-74
2022/02/13 09:47:09;;;;;;;6.57;5.22;;;7.30;68.80;;;;;;6155251;22;105374;-75
2022/02/13 09:49:36;;;;;;;7.75;5.70;;;7.30;69.00;;;;;;6153742;22;92329;-74
2022/02/13 09:52:05;;;;;;;6.45;5.60;;;7.40;68.00;;;;;;6156311;22;91708;-75
2022/02/13 09:54:32;;;;;;;6.40;5.40;;;7.40;67.90;;;;;;6155247;22;93167;-75
2022/02/13 10:00:01;;;;;;;7.03;5.45;;;7.60;67.70;;;;;;6101646;23;95549;-79
2022/02/13 10:02:42;;;;;;;6.70;5.07;;;7.70;67.50;;;;;;6081227;23;93112;-77
2022/02/13 10:05:12;;;;;;;7.80;5.60;;;7.70;67.40;;;;;;6079690;23;97166;-80
2022/02/13 10:07:41;;;;;;;7.43;5.22;;;7.80;67.20;;;;;;6055044;23;95636;-75
2022/02/13 10:10:10;;;;;;;6.95;4.85;;;7.80;67.40;;;;;;6103784;23;96757;-80
2022/02/13 10:12:42;;;;;;;6.88;5.38;;;7.90;67.10;;;;;;6076912;23;93324;-77
2022/02/13 10:15:22;;;;;;;6.75;4.82;;;8.10;66.80;;;;;;6077929;23;95789;-77
2022/02/13 10:18:02;;;;;;;7.60;4.97;;;8.10;66.90;;;;;;6104186;23;92919;-74
2022/02/13 10:20:34;;;;;;;6.68;4.90;;;8.20;67.20;;;;;;6103596;23;93928;-83
2022/02/13 10:23:23;;;;;;;6.68;5.38;;;8.30;67.00;;;;;;6052563;23;92774;-78
2022/02/13 10:25:50;;;;;;;7.05;5.20;;;8.40;66.50;;;;;;6075956;23;95891;-85
2022/02/13 10:28:18;;;;;;;6.07;5.10;;;8.40;66.50;;;;;;6077903;23;95240;-77
2022/02/13 10:30:47;;;;;;;6.72;5.00;;;8.50;66.50;;;;;;6078574;23;93301;-79
2022/02/13 10:33:19;;;;;;;8.18;5.32;;;8.50;66.10;;;;;;6078293;23;93270;-79
2022/02/13 10:36:11;;;;;;;5.68;4.88;;;8.50;66.30;;;;;;6102855;23;94424;-82
2022/02/13 10:38:43;;;;;;;6.40;5.15;;;8.70;66.10;;;;;;6078046;23;93248;-78
2022/02/13 10:41:20;;;;;;;5.90;5.03;;;8.70;66.00;;;;;;6053339;23;93330;-77
2022/02/13 10:44:04;;;;;;;6.43;5.13;;;8.70;65.90;;;;;;6076903;23;92268;-79
2022/02/13 10:46:34;;;;;;;7.07;5.20;;;8.70;65.60;;;;;;6076656;23;95691;-80
2022/02/13 10:49:01;;;;;;;6.35;5.07;;;8.80;65.30;;;;;;6102704;23;92999;-83
2022/02/13 10:51:29;;;;;;;6.72;5.20;;;8.90;65.20;;;;;;6101710;23;94782;-83
2022/02/13 10:53:57;;;;;;;7.35;5.40;;;8.90;65.20;;;;;;6052517;23;92413;-81
2022/02/13 10:56:25;;;;;;;6.80;5.53;;;9.00;65.00;;;;;;6076295;23;96098;-78
2022/02/13 10:58:55;;;;;;;7.60;5.13;;;9.10;64.30;;;;;;6102015;23;92864;-81
2022/02/13 11:01:24;;;;;;;6.35;4.50;;;9.10;65.10;;;;;;6052697;23;92483;-80
2022/02/13 11:03:57;;;;;;;8.18;4.95;;;9.10;65.10;;;;;;6103915;23;92596;-77
2022/02/13 11:06:30;;;;;;;6.03;4.63;;;9.30;64.80;;;;;;6077588;23;94773;-79
2022/02/13 11:09:20;;;;;;;15.57;11.35;;;9.40;64.50;;;;;;6104247;23;92576;-82
2022/02/13 11:11:51;;;;;;;8.55;5.38;;;9.50;64.90;;;;;;6076536;23;93291;-84
2022/02/13 11:14:36;;;;;;;7.72;6.55;;;9.50;64.60;;;;;;6080434;23;92423;-77
2022/02/13 11:17:04;;;;;;;6.65;5.93;;;9.60;63.90;;;;;;6110838;23;96489;-76
2022/02/13 11:19:33;;;;;;;6.68;5.70;;;9.60;63.70;;;;;;6124827;23;95364;-76
2022/02/13 11:22:02;;;;;;;7.05;5.28;;;9.60;63.70;;;;;;6125184;23;92474;-76
2022/02/13 11:24:35;;;;;;;5.68;5.07;;;9.60;63.40;;;;;;6098375;23;92674;-77
2022/02/13 11:27:08;;;;;;;5.63;4.93;;;9.60;63.80;;;;;;6125203;23;93276;-77
2022/02/13 11:29:55;;;;;;;6.07;5.45;;;9.60;63.50;;;;;;6098736;23;93365;-76
2022/02/13 11:32:42;;;;;;;5.45;4.57;;;9.70;63.00;;;;;;6098950;23;92534;-76
2022/02/13 11:35:12;;;;;;;6.03;5.03;;;9.80;63.60;;;;;;6099690;23;91558;-76
2022/02/13 11:37:50;;;;;;;7.75;5.25;;;9.70;62.20;;;;;;6074220;23;95643;-76
2022/02/13 11:40:36;;;;;;;6.95;5.57;;;9.70;63.90;;;;;;6098275;23;93698;-76
2022/02/13 11:43:08;;;;;;;7.03;5.57;;;9.80;63.10;;;;;;6073073;23;94818;-77
2022/02/13 11:45:44;;;;;;;6.60;5.10;;;9.70;63.00;;;;;;6124961;23;92394;-76
2022/02/13 11:48:33;;;;;;;5.88;5.25;;;9.80;64.00;;;;;;6124955;23;93256;-77
2022/02/13 11:51:00;;;;;;;6.20;5.28;;;9.90;64.40;;;;;;6098434;23;95921;-76
2022/02/13 11:53:29;;;;;;;6.57;5.43;;;9.80;64.20;;;;;;6074383;23;92455;-76
2022/02/13 11:56:27;;;;;;;5.95;4.82;;;9.90;64.10;;;;;;6130523;22;92453;-76
2022/02/13 11:58:55;;;;;;;5.47;4.80;;;9.90;64.10;;;;;;6123187;22;93186;-76
2022/02/13 12:01:39;;;;;;;6.85;5.22;;;9.80;63.90;;;;;;6129327;22;95590;-76
2022/02/13 12:04:08;;;;;;;7.37;6.20;;;9.90;63.30;;;;;;6129676;22;92450;-77
2022/02/13 12:06:36;;;;;;;6.97;5.50;;;9.90;63.70;;;;;;6129462;22;92508;-76
2022/02/13 12:09:09;;;;;;;6.07;5.22;;;9.90;63.50;;;;;;6127496;22;98371;-76
2022/02/13 12:11:39;;;;;;;9.77;5.30;;;10.00;63.50;;;;;;6129197;22;95291;-77
2022/02/13 12:14:14;;;;;;;5.97;5.32;;;9.90;62.90;;;;;;6156275;22;92333;-76
2022/02/13 12:16:53;;;;;;;6.57;5.43;;;9.90;63.30;;;;;;6155991;22;92319;-77
2022/02/13 12:19:32;;;;;;;5.85;5.15;;;9.90;63.40;;;;;;6156108;22;93191;-76
2022/02/13 12:22:10;;;;;;;9.40;5.43;;;9.80;63.70;;;;;;6155911;22;92770;-77
2022/02/13 12:24:38;;;;;;;7.13;5.60;;;9.80;63.70;;;;;;6104272;22;92423;-77
2022/02/13 12:27:05;;;;;;;7.82;5.30;;;9.80;63.60;;;;;;6130363;22;91690;-77
2022/02/13 12:29:32;;;;;;;5.88;5.07;;;9.80;63.20;;;;;;6129113;22;95854;-77
2022/02/13 12:32:06;;;;;;;5.90;4.85;;;9.80;63.60;;;;;;6155879;22;92681;-76
2022/02/13 12:35:01;;;;;;;6.20;5.60;;;9.90;64.10;;;;;;6127603;22;94901;-76
2022/02/13 12:37:44;;;;;;;6.20;5.15;;;10.00;63.70;;;;;;6155779;22;96895;-76
2022/02/13 12:40:19;;;;;;;5.90;4.97;;;10.00;62.80;;;;;;6155954;22;93212;-77
2022/02/13 12:42:48;;;;;;;5.22;4.72;;;9.90;62.60;;;;;;6129194;22;92943;-76
2022/02/13 12:45:23;;;;;;;5.10;4.40;;;10.00;62.40;;;;;;6129562;22;92430;-76
2022/02/13 12:47:58;;;;;;;6.88;4.95;;;10.10;62.90;;;;;;6129257;22;92849;-77
2022/02/13 12:50:27;;;;;;;4.90;4.18;;;10.20;63.10;;;;;;6129179;22;95823;-77
2022/02/13 12:53:00;;;;;;;5.60;4.95;;;10.20;62.30;;;;;;6104094;22;95474;-76
2022/02/13 12:55:29;;;;;;;5.32;4.75;;;10.30;62.40;;;;;;6129717;22;92441;-76
2022/02/13 12:57:58;;;;;;;6.15;5.18;;;10.40;62.50;;;;;;6155229;22;92922;-77
2022/02/13 13:00:33;;;;;;;5.38;4.88;;;10.40;61.50;;;;;;6128013;22;95523;-76
2022/02/13 13:03:21;;;;;;;4.60;4.18;;;10.50;61.40;;;;;;6155648;22;95289;-76
2022/02/13 13:05:49;;;;;;;5.20;4.45;;;10.50;61.50;;;;;;6129283;22;92408;-76